Rome, OR

10:17 PM MST on November 28, 2014 (GMT -0700)
RAWS GRASSY MOUNTAIN OR US | Change Station
CLOSE
Current Station
Personal Weather Station
Location: Jordan Valley, OR
Elevation: 4560 ft
Nearby Weather Stations

Elev 4560 ft 42.63 °N, 117.40 °W | Updated 53 minutes ago

Mostly Cloudy
Mostly Cloudy
47 °F
Feels Like 45 °F
N
4
Wind Variable Wind from NW
Gusts 17.0 mph

Today
High -- | Low -- °F
--% Chance of Precip.
Yesterday
High -- | Low -- °F
Precip. -- in
7:57 AM 5:18 PM
Waxing Crescent, 48% visible
Pressure 29.64 in
Visibility 10.0 miles
Clouds Mostly Cloudy 13000 ft
Mostly Cloudy 17000 ft
Windchill 45 °F
Dew Point 32 °F
Humidity 55%
Rainfall 0.00 in
Snow Depth Not available.
UV 0 out of 12
Pollen .10 out of 12
Air Quality Not available.
Flu Activity Not available.
METAR KMUO 290458Z AUTO 27009KT 10SM BKN130 BKN170 11/01 A2965 RMK AO2 SLP037 T01090013

More Conditions Fewer Conditions

Pressure 29.64 in
Visibility 10.0 miles
Clouds Mostly Cloudy 13000 ft
Mostly Cloudy 17000 ft
Windchill 45 °F
Dew Point 32 °F
Humidity 55%
Rainfall 0.00 in
Snow Depth Not available.
UV 0 out of 12
Pollen .10 out of 12
Air Quality Not available.
Flu Activity Not available.
METAR KMUO 290458Z AUTO 27009KT 10SM BKN130 BKN170 11/01 A2965 RMK AO2 SLP037 T01090013

More Conditions Fewer Conditions

10-Day Weather Forecast

Almanac

Astronomy

Nov. 28, 2014 Rise Set
Actual Time
Civil Twilight
Nautical Twilight
Astronomical Twilight
Moon
Length of Visible Light
Length of Day
Tomorrow will be .
, % of the Moon is Illuminated

Today's Extremes

State Highs State Lows

Community

WunderPhotos

Upload Photos

1,774,418 photos uploaded!

WunderBlogs® & News

Nearby

Air Quality

  Air Quality AQ Index Pollutant
Not available.

Snow Depth

Station Depth Elevation

Earthquake Activity

City Distance Mag. Time & Date
Minimum magnitude displayed is 2.5.

Coastal Water Temperatures

Place Temperature

Nearby Weather Stations